sensor_id;sensor_type;location;lat;lon;timestamp;P1;durP1;ratioP1;P2;durP2;ratioP2
47796;SDS011;33558;50.922;14.068;2022-07-29T00:01:29;25.58;;;15.68;;
47796;SDS011;33558;50.922;14.068;2022-07-29T00:03:55;32.08;;;18.67;;
47796;SDS011;33558;50.922;14.068;2022-07-29T00:06:22;30.45;;;18.27;;
47796;SDS011;33558;50.922;14.068;2022-07-29T00:08:49;32.40;;;18.73;;
47796;SDS011;33558;50.922;14.068;2022-07-29T00:11:17;34.67;;;18.55;;
47796;SDS011;33558;50.922;14.068;2022-07-29T00:13:43;35.42;;;20.20;;
47796;SDS011;33558;50.922;14.068;2022-07-29T00:16:10;33.85;;;19.25;;
47796;SDS011;33558;50.922;14.068;2022-07-29T00:18:36;31.95;;;21.58;;
47796;SDS011;33558;50.922;14.068;2022-07-29T00:21:04;36.65;;;21.23;;
47796;SDS011;33558;50.922;14.068;2022-07-29T00:23:31;37.50;;;21.75;;
47796;SDS011;33558;50.922;14.068;2022-07-29T00:25:57;36.58;;;20.25;;
47796;SDS011;33558;50.922;14.068;2022-07-29T00:28:25;40.45;;;22.67;;
47796;SDS011;33558;50.922;14.068;2022-07-29T00:30:52;36.03;;;23.20;;
47796;SDS011;33558;50.922;14.068;2022-07-29T00:33:18;39.10;;;24.33;;
47796;SDS011;33558;50.922;14.068;2022-07-29T00:35:45;36.60;;;24.73;;
47796;SDS011;33558;50.922;14.068;2022-07-29T00:38:11;40.95;;;25.40;;
47796;SDS011;33558;50.922;14.068;2022-07-29T00:40:39;41.53;;;25.75;;
47796;SDS011;33558;50.922;14.068;2022-07-29T00:43:05;42.97;;;26.75;;
47796;SDS011;33558;50.922;14.068;2022-07-29T00:45:33;41.80;;;26.92;;
47796;SDS011;33558;50.922;14.068;2022-07-29T00:48:00;44.47;;;27.17;;
47796;SDS011;33558;50.922;14.068;2022-07-29T00:50:28;46.38;;;26.42;;
47796;SDS011;33558;50.922;14.068;2022-07-29T00:52:55;45.15;;;28.00;;
47796;SDS011;33558;50.922;14.068;2022-07-29T00:55:21;45.85;;;27.05;;
47796;SDS011;33558;50.922;14.068;2022-07-29T00:57:48;42.47;;;28.05;;
47796;SDS011;33558;50.922;14.068;2022-07-29T01:00:16;49.83;;;27.70;;
47796;SDS011;33558;50.922;14.068;2022-07-29T01:02:45;43.50;;;27.95;;
47796;SDS011;33558;50.922;14.068;2022-07-29T01:05:13;49.05;;;30.33;;
47796;SDS011;33558;50.922;14.068;2022-07-29T01:07:41;52.08;;;30.08;;
47796;SDS011;33558;50.922;14.068;2022-07-29T01:10:09;48.63;;;31.90;;
47796;SDS011;33558;50.922;14.068;2022-07-29T01:12:36;50.80;;;32.17;;
47796;SDS011;33558;50.922;14.068;2022-07-29T01:15:04;52.17;;;32.10;;
47796;SDS011;33558;50.922;14.068;2022-07-29T01:17:33;55.22;;;33.28;;
47796;SDS011;33558;50.922;14.068;2022-07-29T01:20:07;50.50;;;31.70;;
47796;SDS011;33558;50.922;14.068;2022-07-29T01:22:42;55.08;;;32.42;;
47796;SDS011;33558;50.922;14.068;2022-07-29T01:25:27;52.40;;;32.93;;
47796;SDS011;33558;50.922;14.068;2022-07-29T01:28:08;52.17;;;32.70;;
47796;SDS011;33558;50.922;14.068;2022-07-29T01:30:41;56.35;;;34.13;;
47796;SDS011;33558;50.922;14.068;2022-07-29T01:33:10;53.55;;;34.80;;
47796;SDS011;33558;50.922;14.068;2022-07-29T01:35:58;58.43;;;35.83;;
47796;SDS011;33558;50.922;14.068;2022-07-29T01:38:25;54.88;;;34.70;;
47796;SDS011;33558;50.922;14.068;2022-07-29T01:40:56;63.23;;;37.00;;
47796;SDS011;33558;50.922;14.068;2022-07-29T01:43:27;54.22;;;35.45;;
47796;SDS011;33558;50.922;14.068;2022-07-29T01:46:01;56.47;;;36.60;;
47796;SDS011;33558;50.922;14.068;2022-07-29T01:48:31;57.95;;;36.33;;
47796;SDS011;33558;50.922;14.068;2022-07-29T01:51:04;59.40;;;37.05;;
47796;SDS011;33558;50.922;14.068;2022-07-29T01:53:34;61.67;;;36.30;;
47796;SDS011;33558;50.922;14.068;2022-07-29T01:56:02;63.17;;;38.95;;
47796;SDS011;33558;50.922;14.068;2022-07-29T01:58:30;60.80;;;35.83;;
47796;SDS011;33558;50.922;14.068;2022-07-29T02:00:57;61.37;;;38.53;;
47796;SDS011;33558;50.922;14.068;2022-07-29T02:03:26;55.93;;;37.20;;
47796;SDS011;33558;50.922;14.068;2022-07-29T02:05:54;56.63;;;36.97;;
47796;SDS011;33558;50.922;14.068;2022-07-29T02:08:22;57.83;;;39.03;;
47796;SDS011;33558;50.922;14.068;2022-07-29T02:10:49;60.20;;;37.47;;
47796;SDS011;33558;50.922;14.068;2022-07-29T02:13:16;54.33;;;35.90;;
47796;SDS011;33558;50.922;14.068;2022-07-29T02:15:44;59.08;;;36.88;;
47796;SDS011;33558;50.922;14.068;2022-07-29T02:18:13;57.45;;;37.13;;
47796;SDS011;33558;50.922;14.068;2022-07-29T02:20:44;60.77;;;37.87;;
47796;SDS011;33558;50.922;14.068;2022-07-29T02:23:11;58.03;;;36.80;;
47796;SDS011;33558;50.922;14.068;2022-07-29T02:25:39;62.03;;;38.55;;
47796;SDS011;33558;50.922;14.068;2022-07-29T02:28:07;56.77;;;37.20;;
47796;SDS011;33558;50.922;14.068;2022-07-29T02:30:34;59.37;;;38.10;;
47796;SDS011;33558;50.922;14.068;2022-07-29T02:33:03;57.10;;;36.83;;
47796;SDS011;33558;50.922;14.068;2022-07-29T02:35:30;53.97;;;36.90;;
47796;SDS011;33558;50.922;14.068;2022-07-29T02:37:58;57.97;;;35.65;;
47796;SDS011;33558;50.922;14.068;2022-07-29T02:40:42;58.15;;;36.28;;
47796;SDS011;33558;50.922;14.068;2022-07-29T02:43:09;54.20;;;36.00;;
47796;SDS011;33558;50.922;14.068;2022-07-29T02:45:37;59.03;;;35.88;;
47796;SDS011;33558;50.922;14.068;2022-07-29T02:48:05;56.03;;;35.10;;
47796;SDS011;33558;50.922;14.068;2022-07-29T02:50:34;56.00;;;35.45;;
47796;SDS011;33558;50.922;14.068;2022-07-29T02:53:07;54.23;;;35.10;;
47796;SDS011;33558;50.922;14.068;2022-07-29T02:55:37;58.72;;;36.35;;
47796;SDS011;33558;50.922;14.068;2022-07-29T02:58:07;53.70;;;34.47;;
47796;SDS011;33558;50.922;14.068;2022-07-29T03:00:43;58.33;;;35.20;;
47796;SDS011;33558;50.922;14.068;2022-07-29T03:03:13;58.08;;;36.70;;
47796;SDS011;33558;50.922;14.068;2022-07-29T03:05:41;54.47;;;37.35;;
47796;SDS011;33558;50.922;14.068;2022-07-29T03:08:10;56.33;;;37.03;;
47796;SDS011;33558;50.922;14.068;2022-07-29T03:10:38;52.45;;;34.83;;
47796;SDS011;33558;50.922;14.068;2022-07-29T03:13:05;56.58;;;34.80;;
47796;SDS011;33558;50.922;14.068;2022-07-29T03:15:32;54.65;;;36.17;;
47796;SDS011;33558;50.922;14.068;2022-07-29T03:17:59;48.78;;;34.35;;
47796;SDS011;33558;50.922;14.068;2022-07-29T03:20:26;58.53;;;34.58;;
47796;SDS011;33558;50.922;14.068;2022-07-29T03:22:53;57.00;;;35.15;;
47796;SDS011;33558;50.922;14.068;2022-07-29T03:25:21;50.72;;;34.65;;
47796;SDS011;33558;50.922;14.068;2022-07-29T03:27:47;53.35;;;33.83;;
47796;SDS011;33558;50.922;14.068;2022-07-29T03:30:14;54.53;;;33.85;;
47796;SDS011;33558;50.922;14.068;2022-07-29T03:32:41;54.17;;;33.55;;
47796;SDS011;33558;50.922;14.068;2022-07-29T03:35:08;52.92;;;34.00;;
47796;SDS011;33558;50.922;14.068;2022-07-29T03:37:35;50.30;;;33.28;;
47796;SDS011;33558;50.922;14.068;2022-07-29T03:40:02;51.05;;;33.78;;
47796;SDS011;33558;50.922;14.068;2022-07-29T03:42:33;49.35;;;33.92;;
47796;SDS011;33558;50.922;14.068;2022-07-29T03:45:03;51.17;;;33.03;;
47796;SDS011;33558;50.922;14.068;2022-07-29T03:47:32;47.90;;;32.53;;
47796;SDS011;33558;50.922;14.068;2022-07-29T03:50:02;46.83;;;31.90;;
47796;SDS011;33558;50.922;14.068;2022-07-29T03:52:32;48.67;;;31.90;;
47796;SDS011;33558;50.922;14.068;2022-07-29T03:54:59;46.22;;;30.92;;
47796;SDS011;33558;50.922;14.068;2022-07-29T03:57:27;46.28;;;30.50;;
47796;SDS011;33558;50.922;14.068;2022-07-29T03:59:56;54.78;;;31.33;;
47796;SDS011;33558;50.922;14.068;2022-07-29T04:02:23;48.10;;;31.60;;
47796;SDS011;33558;50.922;14.068;2022-07-29T04:04:51;46.53;;;29.90;;
47796;SDS011;33558;50.922;14.068;2022-07-29T04:07:18;49.92;;;32.13;;
47796;SDS011;33558;50.922;14.068;2022-07-29T04:09:44;42.30;;;30.57;;
47796;SDS011;33558;50.922;14.068;2022-07-29T04:12:11;50.20;;;29.35;;
47796;SDS011;33558;50.922;14.068;2022-07-29T04:14:38;43.00;;;29.92;;
47796;SDS011;33558;50.922;14.068;2022-07-29T04:17:06;47.30;;;29.15;;
47796;SDS011;33558;50.922;14.068;2022-07-29T04:19:32;42.25;;;28.23;;
47796;SDS011;33558;50.922;14.068;2022-07-29T04:21:59;45.67;;;29.58;;
47796;SDS011;33558;50.922;14.068;2022-07-29T04:24:26;47.58;;;29.30;;
47796;SDS011;33558;50.922;14.068;2022-07-29T04:26:53;42.50;;;29.30;;
47796;SDS011;33558;50.922;14.068;2022-07-29T04:29:20;39.58;;;26.65;;
47796;SDS011;33558;50.922;14.068;2022-07-29T04:31:47;46.85;;;29.25;;
47796;SDS011;33558;50.922;14.068;2022-07-29T04:34:15;37.70;;;27.00;;
47796;SDS011;33558;50.922;14.068;2022-07-29T04:36:42;41.67;;;27.95;;
47796;SDS011;33558;50.922;14.068;2022-07-29T04:39:08;43.85;;;28.25;;
47796;SDS011;33558;50.922;14.068;2022-07-29T04:41:35;40.75;;;28.33;;
47796;SDS011;33558;50.922;14.068;2022-07-29T04:44:02;41.58;;;26.80;;
47796;SDS011;33558;50.922;14.068;2022-07-29T04:46:30;43.85;;;27.65;;
47796;SDS011;33558;50.922;14.068;2022-07-29T04:48:57;42.75;;;28.30;;
47796;SDS011;33558;50.922;14.068;2022-07-29T04:51:25;42.22;;;26.88;;
47796;SDS011;33558;50.922;14.068;2022-07-29T04:53:51;40.60;;;27.15;;
47796;SDS011;33558;50.922;14.068;2022-07-29T04:56:18;45.55;;;29.10;;
47796;SDS011;33558;50.922;14.068;2022-07-29T04:58:45;39.45;;;25.35;;
47796;SDS011;33558;50.922;14.068;2022-07-29T05:01:12;43.58;;;28.05;;
47796;SDS011;33558;50.922;14.068;2022-07-29T05:03:39;42.13;;;26.17;;
47796;SDS011;33558;50.922;14.068;2022-07-29T05:06:06;43.30;;;26.83;;
47796;SDS011;33558;50.922;14.068;2022-07-29T05:08:34;42.22;;;26.90;;
47796;SDS011;33558;50.922;14.068;2022-07-29T05:11:00;40.92;;;27.45;;
47796;SDS011;33558;50.922;14.068;2022-07-29T05:13:27;45.00;;;26.65;;
47796;SDS011;33558;50.922;14.068;2022-07-29T05:15:54;37.40;;;26.02;;
47796;SDS011;33558;50.922;14.068;2022-07-29T05:18:21;36.75;;;25.50;;
47796;SDS011;33558;50.922;14.068;2022-07-29T05:20:48;38.78;;;27.00;;
47796;SDS011;33558;50.922;14.068;2022-07-29T05:23:15;42.10;;;27.75;;
47796;SDS011;33558;50.922;14.068;2022-07-29T05:25:43;43.05;;;29.75;;
47796;SDS011;33558;50.922;14.068;2022-07-29T05:28:09;49.28;;;32.05;;
47796;SDS011;33558;50.922;14.068;2022-07-29T05:30:36;43.42;;;29.40;;
47796;SDS011;33558;50.922;14.068;2022-07-29T05:33:03;47.30;;;32.33;;
47796;SDS011;33558;50.922;14.068;2022-07-29T05:35:29;60.42;;;38.55;;
47796;SDS011;33558;50.922;14.068;2022-07-29T05:37:56;58.80;;;39.30;;
47796;SDS011;33558;50.922;14.068;2022-07-29T05:40:23;55.85;;;38.28;;
47796;SDS011;33558;50.922;14.068;2022-07-29T05:42:51;65.03;;;44.10;;
47796;SDS011;33558;50.922;14.068;2022-07-29T05:45:17;90.95;;;59.47;;
47796;SDS011;33558;50.922;14.068;2022-07-29T05:47:44;121.55;;;76.38;;
47796;SDS011;33558;50.922;14.068;2022-07-29T05:50:11;230.52;;;143.05;;
47796;SDS011;33558;50.922;14.068;2022-07-29T05:52:38;275.40;;;175.43;;
47796;SDS011;33558;50.922;14.068;2022-07-29T05:55:05;318.10;;;207.13;;
47796;SDS011;33558;50.922;14.068;2022-07-29T05:57:32;364.60;;;246.18;;
47796;SDS011;33558;50.922;14.068;2022-07-29T06:00:01;380.00;;;255.57;;
47796;SDS011;33558;50.922;14.068;2022-07-29T06:02:37;389.38;;;257.67;;
47796;SDS011;33558;50.922;14.068;2022-07-29T06:05:05;363.40;;;248.43;;
47796;SDS011;33558;50.922;14.068;2022-07-29T06:07:33;349.50;;;236.57;;
47796;SDS011;33558;50.922;14.068;2022-07-29T06:10:00;380.55;;;257.13;;
47796;SDS011;33558;50.922;14.068;2022-07-29T06:12:27;385.65;;;268.02;;
47796;SDS011;33558;50.922;14.068;2022-07-29T06:14:53;417.05;;;289.27;;
47796;SDS011;33558;50.922;14.068;2022-07-29T06:17:21;414.92;;;293.58;;
47796;SDS011;33558;50.922;14.068;2022-07-29T06:19:48;412.48;;;292.13;;
47796;SDS011;33558;50.922;14.068;2022-07-29T06:22:15;414.33;;;287.33;;
47796;SDS011;33558;50.922;14.068;2022-07-29T06:24:42;430.02;;;301.90;;
47796;SDS011;33558;50.922;14.068;2022-07-29T06:27:09;421.83;;;287.83;;
47796;SDS011;33558;50.922;14.068;2022-07-29T06:29:36;445.90;;;315.92;;
47796;SDS011;33558;50.922;14.068;2022-07-29T06:32:03;444.70;;;311.00;;
47796;SDS011;33558;50.922;14.068;2022-07-29T06:34:33;454.88;;;324.85;;
47796;SDS011;33558;50.922;14.068;2022-07-29T06:37:00;476.35;;;334.88;;
47796;SDS011;33558;50.922;14.068;2022-07-29T06:39:27;462.50;;;336.88;;
47796;SDS011;33558;50.922;14.068;2022-07-29T06:41:54;477.38;;;337.17;;
47796;SDS011;33558;50.922;14.068;2022-07-29T06:44:23;468.38;;;343.05;;
47796;SDS011;33558;50.922;14.068;2022-07-29T06:46:50;476.40;;;348.38;;
47796;SDS011;33558;50.922;14.068;2022-07-29T06:49:18;482.33;;;347.85;;
47796;SDS011;33558;50.922;14.068;2022-07-29T06:51:46;462.80;;;334.90;;
47796;SDS011;33558;50.922;14.068;2022-07-29T06:54:12;476.35;;;349.38;;
47796;SDS011;33558;50.922;14.068;2022-07-29T06:56:39;484.73;;;356.13;;
47796;SDS011;33558;50.922;14.068;2022-07-29T06:59:07;487.65;;;361.42;;
47796;SDS011;33558;50.922;14.068;2022-07-29T07:01:35;507.80;;;382.05;;
47796;SDS011;33558;50.922;14.068;2022-07-29T07:04:02;515.47;;;385.77;;
47796;SDS011;33558;50.922;14.068;2022-07-29T07:06:29;496.92;;;373.40;;
47796;SDS011;33558;50.922;14.068;2022-07-29T07:08:57;499.15;;;372.88;;
47796;SDS011;33558;50.922;14.068;2022-07-29T07:11:24;501.90;;;370.17;;
47796;SDS011;33558;50.922;14.068;2022-07-29T07:13:51;492.25;;;368.63;;
47796;SDS011;33558;50.922;14.068;2022-07-29T07:16:17;477.20;;;359.88;;
47796;SDS011;33558;50.922;14.068;2022-07-29T07:18:44;456.77;;;342.80;;
47796;SDS011;33558;50.922;14.068;2022-07-29T07:21:11;458.10;;;341.20;;
47796;SDS011;33558;50.922;14.068;2022-07-29T07:23:37;460.23;;;337.63;;
47796;SDS011;33558;50.922;14.068;2022-07-29T07:26:05;459.70;;;345.25;;
47796;SDS011;33558;50.922;14.068;2022-07-29T07:28:32;442.60;;;326.35;;
47796;SDS011;33558;50.922;14.068;2022-07-29T07:30:58;432.77;;;316.50;;
47796;SDS011;33558;50.922;14.068;2022-07-29T07:33:25;407.80;;;297.00;;
47796;SDS011;33558;50.922;14.068;2022-07-29T07:35:52;411.88;;;305.58;;
47796;SDS011;33558;50.922;14.068;2022-07-29T07:38:18;404.20;;;297.80;;
47796;SDS011;33558;50.922;14.068;2022-07-29T07:40:45;399.65;;;287.92;;
47796;SDS011;33558;50.922;14.068;2022-07-29T07:43:13;414.67;;;312.75;;
47796;SDS011;33558;50.922;14.068;2022-07-29T07:45:40;408.02;;;288.88;;
47796;SDS011;33558;50.922;14.068;2022-07-29T07:48:07;390.80;;;280.15;;
47796;SDS011;33558;50.922;14.068;2022-07-29T07:50:35;402.02;;;291.17;;
47796;SDS011;33558;50.922;14.068;2022-07-29T07:53:02;395.95;;;282.95;;
47796;SDS011;33558;50.922;14.068;2022-07-29T07:55:29;386.90;;;276.77;;
47796;SDS011;33558;50.922;14.068;2022-07-29T07:57:56;359.55;;;258.42;;
47796;SDS011;33558;50.922;14.068;2022-07-29T08:00:26;351.08;;;255.70;;
47796;SDS011;33558;50.922;14.068;2022-07-29T08:02:54;315.15;;;221.48;;
47796;SDS011;33558;50.922;14.068;2022-07-29T08:05:21;289.42;;;202.25;;
47796;SDS011;33558;50.922;14.068;2022-07-29T08:07:49;291.63;;;199.00;;
47796;SDS011;33558;50.922;14.068;2022-07-29T08:10:17;252.68;;;176.98;;
47796;SDS011;33558;50.922;14.068;2022-07-29T08:13:05;227.70;;;156.73;;
47796;SDS011;33558;50.922;14.068;2022-07-29T08:15:35;215.45;;;145.27;;
47796;SDS011;33558;50.922;14.068;2022-07-29T08:18:03;221.75;;;147.90;;
47796;SDS011;33558;50.922;14.068;2022-07-29T08:20:31;193.75;;;131.27;;
47796;SDS011;33558;50.922;14.068;2022-07-29T08:23:00;180.02;;;122.93;;
47796;SDS011;33558;50.922;14.068;2022-07-29T08:25:30;167.27;;;114.78;;
47796;SDS011;33558;50.922;14.068;2022-07-29T08:28:00;167.63;;;113.13;;
47796;SDS011;33558;50.922;14.068;2022-07-29T08:30:27;154.27;;;105.20;;
47796;SDS011;33558;50.922;14.068;2022-07-29T08:32:56;151.25;;;102.47;;
47796;SDS011;33558;50.922;14.068;2022-07-29T08:35:24;149.60;;;99.93;;
47796;SDS011;33558;50.922;14.068;2022-07-29T08:37:53;132.45;;;89.63;;
47796;SDS011;33558;50.922;14.068;2022-07-29T08:40:22;135.80;;;90.22;;
47796;SDS011;33558;50.922;14.068;2022-07-29T08:42:51;131.18;;;88.80;;
47796;SDS011;33558;50.922;14.068;2022-07-29T08:45:19;127.57;;;90.13;;
47796;SDS011;33558;50.922;14.068;2022-07-29T08:47:46;122.50;;;87.45;;
47796;SDS011;33558;50.922;14.068;2022-07-29T08:50:16;117.10;;;79.88;;
47796;SDS011;33558;50.922;14.068;2022-07-29T08:52:44;102.05;;;66.90;;
47796;SDS011;33558;50.922;14.068;2022-07-29T08:55:12;83.20;;;55.88;;
47796;SDS011;33558;50.922;14.068;2022-07-29T08:57:43;58.65;;;42.00;;
47796;SDS011;33558;50.922;14.068;2022-07-29T09:00:12;41.83;;;29.67;;
47796;SDS011;33558;50.922;14.068;2022-07-29T09:02:39;19.20;;;12.88;;
47796;SDS011;33558;50.922;14.068;2022-07-29T09:05:08;18.75;;;12.90;;
47796;SDS011;33558;50.922;14.068;2022-07-29T09:07:39;26.13;;;15.98;;
47796;SDS011;33558;50.922;14.068;2022-07-29T09:10:13;22.38;;;11.15;;
47796;SDS011;33558;50.922;14.068;2022-07-29T09:12:41;13.65;;;9.75;;
47796;SDS011;33558;50.922;14.068;2022-07-29T09:15:08;19.70;;;12.75;;
47796;SDS011;33558;50.922;14.068;2022-07-29T09:17:41;21.13;;;12.27;;
47796;SDS011;33558;50.922;14.068;2022-07-29T09:20:10;14.90;;;11.35;;
47796;SDS011;33558;50.922;14.068;2022-07-29T09:22:39;18.38;;;12.68;;
47796;SDS011;33558;50.922;14.068;2022-07-29T09:25:06;20.10;;;13.48;;
47796;SDS011;33558;50.922;14.068;2022-07-29T09:27:33;13.50;;;9.32;;
47796;SDS011;33558;50.922;14.068;2022-07-29T09:30:02;10.68;;;7.55;;
47796;SDS011;33558;50.922;14.068;2022-07-29T09:32:30;13.00;;;9.30;;
47796;SDS011;33558;50.922;14.068;2022-07-29T09:35:16;35.15;;;9.73;;
47796;SDS011;33558;50.922;14.068;2022-07-29T09:37:45;23.33;;;6.15;;
47796;SDS011;33558;50.922;14.068;2022-07-29T09:40:13;5.65;;;3.80;;
47796;SDS011;33558;50.922;14.068;2022-07-29T09:42:41;4.22;;;3.00;;
47796;SDS011;33558;50.922;14.068;2022-07-29T09:45:08;4.25;;;2.50;;
47796;SDS011;33558;50.922;14.068;2022-07-29T09:47:45;4.57;;;2.33;;
47796;SDS011;33558;50.922;14.068;2022-07-29T09:50:14;5.38;;;1.90;;
47796;SDS011;33558;50.922;14.068;2022-07-29T09:52:46;7.95;;;2.13;;
47796;SDS011;33558;50.922;14.068;2022-07-29T09:55:14;4.22;;;2.08;;
47796;SDS011;33558;50.922;14.068;2022-07-29T09:57:41;3.42;;;2.13;;
47796;SDS011;33558;50.922;14.068;2022-07-29T10:00:09;3.92;;;2.20;;
47796;SDS011;33558;50.922;14.068;2022-07-29T10:02:38;2.28;;;1.73;;
47796;SDS011;33558;50.922;14.068;2022-07-29T10:05:07;3.05;;;1.83;;
47796;SDS011;33558;50.922;14.068;2022-07-29T10:07:44;7.63;;;2.25;;
47796;SDS011;33558;50.922;14.068;2022-07-29T10:10:18;5.88;;;1.83;;
47796;SDS011;33558;50.922;14.068;2022-07-29T10:12:48;7.30;;;2.08;;
47796;SDS011;33558;50.922;14.068;2022-07-29T10:15:16;6.60;;;2.08;;
47796;SDS011;33558;50.922;14.068;2022-07-29T10:17:43;6.07;;;2.08;;
47796;SDS011;33558;50.922;14.068;2022-07-29T10:20:10;6.90;;;2.17;;
47796;SDS011;33558;50.922;14.068;2022-07-29T10:22:37;2.45;;;1.70;;
47796;SDS011;33558;50.922;14.068;2022-07-29T10:25:05;3.38;;;1.77;;
47796;SDS011;33558;50.922;14.068;2022-07-29T10:27:34;4.82;;;1.85;;
47796;SDS011;33558;50.922;14.068;2022-07-29T10:30:01;3.40;;;1.70;;
47796;SDS011;33558;50.922;14.068;2022-07-29T10:32:34;2.90;;;1.98;;
47796;SDS011;33558;50.922;14.068;2022-07-29T10:35:10;2.78;;;1.80;;
47796;SDS011;33558;50.922;14.068;2022-07-29T10:37:46;2.20;;;2.00;;
47796;SDS011;33558;50.922;14.068;2022-07-29T10:40:27;4.10;;;1.92;;
47796;SDS011;33558;50.922;14.068;2022-07-29T10:43:17;6.30;;;2.05;;
47796;SDS011;33558;50.922;14.068;2022-07-29T10:45:46;5.55;;;1.90;;
47796;SDS011;33558;50.922;14.068;2022-07-29T10:48:14;4.47;;;2.00;;
47796;SDS011;33558;50.922;14.068;2022-07-29T10:50:57;5.97;;;2.30;;
47796;SDS011;33558;50.922;14.068;2022-07-29T10:53:45;4.80;;;2.58;;
47796;SDS011;33558;50.922;14.068;2022-07-29T10:56:26;7.60;;;2.03;;
47796;SDS011;33558;50.922;14.068;2022-07-29T11:01:52;3.50;;;2.03;;
47796;SDS011;33558;50.922;14.068;2022-07-29T11:07:19;3.70;;;1.92;;
47796;SDS011;33558;50.922;14.068;2022-07-29T11:12:49;6.65;;;4.03;;
47796;SDS011;33558;50.922;14.068;2022-07-29T11:15:18;3.78;;;2.47;;
47796;SDS011;33558;50.922;14.068;2022-07-29T11:18:05;7.75;;;4.03;;
47796;SDS011;33558;50.922;14.068;2022-07-29T11:20:34;4.65;;;2.90;;
47796;SDS011;33558;50.922;14.068;2022-07-29T11:23:13;3.03;;;2.00;;
47796;SDS011;33558;50.922;14.068;2022-07-29T11:25:44;6.55;;;2.80;;
47796;SDS011;33558;50.922;14.068;2022-07-29T11:28:13;7.18;;;2.33;;
47796;SDS011;33558;50.922;14.068;2022-07-29T11:30:48;9.18;;;2.88;;
47796;SDS011;33558;50.922;14.068;2022-07-29T11:33:29;5.15;;;2.30;;
47796;SDS011;33558;50.922;14.068;2022-07-29T11:36:06;2.90;;;1.85;;
47796;SDS011;33558;50.922;14.068;2022-07-29T11:38:34;4.13;;;1.98;;
47796;SDS011;33558;50.922;14.068;2022-07-29T11:41:22;4.45;;;2.17;;
47796;SDS011;33558;50.922;14.068;2022-07-29T11:43:52;3.30;;;1.92;;
47796;SDS011;33558;50.922;14.068;2022-07-29T11:49:18;5.47;;;2.17;;
47796;SDS011;33558;50.922;14.068;2022-07-29T11:51:49;6.25;;;2.20;;
47796;SDS011;33558;50.922;14.068;2022-07-29T11:54:18;6.30;;;1.90;;
47796;SDS011;33558;50.922;14.068;2022-07-29T11:56:50;4.60;;;2.08;;
47796;SDS011;33558;50.922;14.068;2022-07-29T11:59:19;4.47;;;2.05;;
47796;SDS011;33558;50.922;14.068;2022-07-29T12:01:52;3.22;;;1.98;;
47796;SDS011;33558;50.922;14.068;2022-07-29T12:04:19;4.88;;;2.17;;
47796;SDS011;33558;50.922;14.068;2022-07-29T12:06:48;3.00;;;1.95;;
47796;SDS011;33558;50.922;14.068;2022-07-29T12:09:16;2.92;;;1.95;;
47796;SDS011;33558;50.922;14.068;2022-07-29T12:11:44;3.88;;;2.05;;
47796;SDS011;33558;50.922;14.068;2022-07-29T12:14:25;2.10;;;1.83;;
47796;SDS011;33558;50.922;14.068;2022-07-29T12:16:52;2.85;;;2.00;;
47796;SDS011;33558;50.922;14.068;2022-07-29T12:19:19;2.88;;;2.05;;
47796;SDS011;33558;50.922;14.068;2022-07-29T12:21:46;2.90;;;2.03;;
47796;SDS011;33558;50.922;14.068;2022-07-29T12:24:13;5.38;;;2.42;;
47796;SDS011;33558;50.922;14.068;2022-07-29T12:26:48;2.85;;;2.40;;
47796;SDS011;33558;50.922;14.068;2022-07-29T12:29:15;2.38;;;1.98;;
47796;SDS011;33558;50.922;14.068;2022-07-29T12:31:44;3.08;;;2.25;;
47796;SDS011;33558;50.922;14.068;2022-07-29T12:34:11;6.13;;;2.40;;
47796;SDS011;33558;50.922;14.068;2022-07-29T12:36:38;3.83;;;2.42;;
47796;SDS011;33558;50.922;14.068;2022-07-29T12:39:05;4.90;;;2.53;;
47796;SDS011;33558;50.922;14.068;2022-07-29T12:41:34;7.65;;;2.85;;
47796;SDS011;33558;50.922;14.068;2022-07-29T12:44:01;5.97;;;2.40;;
47796;SDS011;33558;50.922;14.068;2022-07-29T12:46:28;3.45;;;2.20;;
47796;SDS011;33558;50.922;14.068;2022-07-29T12:48:56;3.28;;;1.75;;
47796;SDS011;33558;50.922;14.068;2022-07-29T12:51:30;4.32;;;2.10;;
47796;SDS011;33558;50.922;14.068;2022-07-29T12:54:04;13.00;;;2.22;;
47796;SDS011;33558;50.922;14.068;2022-07-29T12:56:33;76.72;;;15.25;;
47796;SDS011;33558;50.922;14.068;2022-07-29T12:59:00;19.90;;;4.32;;
47796;SDS011;33558;50.922;14.068;2022-07-29T13:01:38;4.80;;;2.08;;
47796;SDS011;33558;50.922;14.068;2022-07-29T13:04:06;7.03;;;2.25;;
47796;SDS011;33558;50.922;14.068;2022-07-29T13:06:34;31.65;;;4.65;;
47796;SDS011;33558;50.922;14.068;2022-07-29T13:09:09;4.50;;;2.42;;
47796;SDS011;33558;50.922;14.068;2022-07-29T13:11:37;7.53;;;2.45;;
47796;SDS011;33558;50.922;14.068;2022-07-29T13:14:06;7.63;;;2.00;;
47796;SDS011;33558;50.922;14.068;2022-07-29T13:16:34;2.83;;;2.00;;
47796;SDS011;33558;50.922;14.068;2022-07-29T13:19:09;2.67;;;1.70;;
47796;SDS011;33558;50.922;14.068;2022-07-29T13:21:37;2.92;;;1.90;;
47796;SDS011;33558;50.922;14.068;2022-07-29T13:24:05;2.97;;;1.88;;
47796;SDS011;33558;50.922;14.068;2022-07-29T13:26:33;6.82;;;2.10;;
47796;SDS011;33558;50.922;14.068;2022-07-29T13:29:00;6.15;;;1.90;;
47796;SDS011;33558;50.922;14.068;2022-07-29T13:31:26;3.45;;;1.90;;
47796;SDS011;33558;50.922;14.068;2022-07-29T13:33:53;6.40;;;1.80;;
47796;SDS011;33558;50.922;14.068;2022-07-29T13:36:21;2.80;;;1.80;;
47796;SDS011;33558;50.922;14.068;2022-07-29T13:38:48;6.40;;;2.30;;
47796;SDS011;33558;50.922;14.068;2022-07-29T13:41:15;5.65;;;2.53;;
47796;SDS011;33558;50.922;14.068;2022-07-29T13:43:44;5.65;;;3.67;;
47796;SDS011;33558;50.922;14.068;2022-07-29T13:46:15;6.43;;;4.80;;
47796;SDS011;33558;50.922;14.068;2022-07-29T13:48:43;4.47;;;3.75;;
47796;SDS011;33558;50.922;14.068;2022-07-29T13:51:10;4.72;;;2.85;;
47796;SDS011;33558;50.922;14.068;2022-07-29T13:53:38;7.68;;;4.47;;
47796;SDS011;33558;50.922;14.068;2022-07-29T13:56:05;10.00;;;5.85;;
47796;SDS011;33558;50.922;14.068;2022-07-29T13:58:32;7.10;;;3.05;;
47796;SDS011;33558;50.922;14.068;2022-07-29T14:00:58;7.25;;;3.30;;
47796;SDS011;33558;50.922;14.068;2022-07-29T14:03:25;3.90;;;2.60;;
47796;SDS011;33558;50.922;14.068;2022-07-29T14:05:53;4.68;;;2.85;;
47796;SDS011;33558;50.922;14.068;2022-07-29T14:08:19;5.68;;;3.10;;
47796;SDS011;33558;50.922;14.068;2022-07-29T14:10:47;4.82;;;2.50;;
47796;SDS011;33558;50.922;14.068;2022-07-29T14:13:14;6.72;;;2.45;;
47796;SDS011;33558;50.922;14.068;2022-07-29T14:15:41;251.20;;;40.45;;
47796;SDS011;33558;50.922;14.068;2022-07-29T14:18:07;2.92;;;1.63;;
47796;SDS011;33558;50.922;14.068;2022-07-29T14:20:34;6.90;;;2.30;;
47796;SDS011;33558;50.922;14.068;2022-07-29T14:23:01;51.67;;;12.50;;
47796;SDS011;33558;50.922;14.068;2022-07-29T14:25:28;9.02;;;4.93;;
47796;SDS011;33558;50.922;14.068;2022-07-29T14:27:56;6.95;;;3.80;;
47796;SDS011;33558;50.922;14.068;2022-07-29T14:30:22;11.13;;;3.63;;
47796;SDS011;33558;50.922;14.068;2022-07-29T14:32:49;74.70;;;13.30;;